Khon Kaen, Thailand

11:38 PM ICT on May 29, 2015 (GMT +0700)
Khon Kaen | | Change Station
CLOSE
Current Station
Airport
Location: Khon Kaen,
Elevation: 633 ft
Nearby Weather Stations

Elev 633 ft 16.46 °N, 102.79 °E | Updated 4 hours ago

Partly Cloudy
Partly Cloudy
95 °F
Feels Like 98 °F
N
5
Wind Variable Wind from SSE

Today
High -- | Low -- °F
--% Chance of Precip.
Yesterday
High -- | Low -- °F
Precip. -- in
5:35 AM 6:36 PM
Waxing Gibbous, 84% visible
Pressure 29.65 in
Visibility 6.2 miles
Clouds Few 3000 ft
Heat Index 98 °F
Dew Point 66 °F
Humidity 39%
Rainfall 0.00 in
Snow Depth Not available.
UV 0 out of 12
Pollen Not available.
Air Quality Not available.
Flu Activity Not available.
METAR VTUK 291200Z 15004KT 9999 FEW030 35/19 Q1004 A2966 INFO N RWY03

More Conditions Fewer Conditions

Pressure 29.65 in
Visibility 6.2 miles
Clouds Few 3000 ft
Heat Index 98 °F
Dew Point 66 °F
Humidity 39%
Rainfall 0.00 in
Snow Depth Not available.
UV 0 out of 12
Pollen Not available.
Air Quality Not available.
Flu Activity Not available.
METAR VTUK 291200Z 15004KT 9999 FEW030 35/19 Q1004 A2966 INFO N RWY03

More Conditions Fewer Conditions

10-Day Weather Forecast

Almanac

Astronomy

May. 29, 2015 Rise Set
Actual Time
Civil Twilight
Nautical Twilight
Astronomical Twilight
Moon
Length of Visible Light
Length of Day
Tomorrow will be .
, % of the Moon is Illuminated

Today's Extremes

Country Highs Country Lows

Community

WunderPhotos

Upload Photos

1,825,301 photos uploaded!

WunderBlogs® & News

Nearby

Air Quality

  Air Quality AQ Index Pollutant
Not available.

Snow Depth

Station Depth Elevation

Earthquake Activity

City Distance Mag. Time & Date
Minimum magnitude displayed is 2.5.

Coastal Water Temperatures

Place Temperature

Stations

Nearby Weather Stations

Station Location Temp. Windchill Dew Point Humidity Wind Precip. Elev Updated Type